createdAt,value
2023-06-08T00:01:01.098Z,12.22
2023-06-08T00:03:28.931Z,12.29
2023-06-08T00:06:00.069Z,12.06
2023-06-08T00:08:30.705Z,12.19
2023-06-08T00:10:58.448Z,12.18
2023-06-08T00:13:26.161Z,12.07
2023-06-08T00:15:53.855Z,12.15
2023-06-08T00:18:21.656Z,12.06
2023-06-08T00:20:49.390Z,11.97
2023-06-08T00:23:17.097Z,12.12
2023-06-08T00:25:46.199Z,12.01
2023-06-08T00:28:13.901Z,11.82
2023-06-08T00:30:41.665Z,11.88
2023-06-08T00:33:09.547Z,11.79
2023-06-08T00:35:37.249Z,11.75
2023-06-08T00:38:04.978Z,11.77
2023-06-08T00:40:32.653Z,11.78
2023-06-08T00:43:01.732Z,11.69
2023-06-08T00:45:29.464Z,11.59
2023-06-08T00:47:57.253Z,11.38
2023-06-08T00:50:25.788Z,11.73
2023-06-08T00:52:53.610Z,11.62
2023-06-08T00:55:22.122Z,11.40
2023-06-08T00:57:51.199Z,11.59
2023-06-08T01:00:20.609Z,11.39
2023-06-08T01:02:49.299Z,11.39
2023-06-08T01:05:18.376Z,11.51
2023-06-08T01:07:54.339Z,11.58
2023-06-08T01:10:29.157Z,11.33
2023-06-08T01:17:43.647Z,11.12
2023-06-08T01:20:30.774Z,11.15
2023-06-08T01:23:10.892Z,11.10
2023-06-08T01:25:41.305Z,11.37
2023-06-08T01:28:14.574Z,11.25
2023-06-08T01:30:43.745Z,11.22
2023-06-08T01:33:13.148Z,10.91
2023-06-08T01:35:41.353Z,11.00
2023-06-08T01:38:15.756Z,11.22
2023-06-08T01:40:47.858Z,11.42
2023-06-08T01:43:16.263Z,11.29
2023-06-08T01:45:48.227Z,11.20
2023-06-08T01:48:16.355Z,11.16
2023-06-08T01:50:45.095Z,11.12
2023-06-08T01:53:12.872Z,11.16
2023-06-08T01:55:40.570Z,11.21
2023-06-08T01:58:09.646Z,11.00
2023-06-08T02:00:37.377Z,10.88
2023-06-08T02:03:05.295Z,11.09
2023-06-08T02:05:33.061Z,11.05
2023-06-08T02:08:00.806Z,11.08
2023-06-08T02:10:29.801Z,10.88
2023-06-08T02:12:57.518Z,11.06
2023-06-08T02:15:26.888Z,11.00
2023-06-08T02:17:54.655Z,11.04
2023-06-08T02:20:22.382Z,10.93
2023-06-08T02:22:50.098Z,11.24
2023-06-08T02:25:17.833Z,10.95
2023-06-08T02:27:45.716Z,11.20
2023-06-08T02:30:15.287Z,11.26
2023-06-08T02:32:46.985Z,11.04
2023-06-08T02:35:15.379Z,11.17
2023-06-08T02:37:43.861Z,11.02
2023-06-08T02:40:12.343Z,11.06
2023-06-08T02:42:40.054Z,11.09
2023-06-08T02:45:08.582Z,11.01
2023-06-08T02:47:36.509Z,11.11
2023-06-08T02:50:06.595Z,11.14
2023-06-08T02:52:35.217Z,10.99
2023-06-08T02:55:02.957Z,10.92
2023-06-08T02:57:30.716Z,11.15
2023-06-08T02:59:58.759Z,11.09
2023-06-08T03:02:28.589Z,11.06
2023-06-08T03:04:59.837Z,11.10
2023-06-08T03:07:29.365Z,11.10
2023-06-08T03:09:57.051Z,11.16
2023-06-08T03:12:24.789Z,11.09
2023-06-08T03:14:54.306Z,11.03
2023-06-08T03:17:22.072Z,11.01
2023-06-08T03:19:49.910Z,11.15
2023-06-08T03:22:17.656Z,11.01
2023-06-08T03:24:49.999Z,11.01
2023-06-08T03:27:18.172Z,11.02
2023-06-08T03:29:46.910Z,10.91
2023-06-08T03:32:14.664Z,11.03
2023-06-08T03:34:45.970Z,11.00
2023-06-08T03:37:13.689Z,10.93
2023-06-08T03:39:41.389Z,10.82
2023-06-08T03:42:10.963Z,10.77
2023-06-08T03:44:38.671Z,11.01
2023-06-08T03:47:10.143Z,10.93
2023-06-08T03:49:37.855Z,10.86
2023-06-08T03:52:06.667Z,11.10
2023-06-08T03:54:34.357Z,11.13
2023-06-08T03:57:02.028Z,11.06
2023-06-08T03:59:31.115Z,11.08
2023-06-08T04:01:58.848Z,11.22
2023-06-08T04:04:30.602Z,10.94
2023-06-08T04:07:01.444Z,11.18
2023-06-08T04:09:29.472Z,11.00
2023-06-08T04:11:57.399Z,11.29
2023-06-08T04:14:25.682Z,11.47
2023-06-08T04:16:54.779Z,11.44
2023-06-08T04:19:22.463Z,11.52
2023-06-08T04:21:50.736Z,11.70
2023-06-08T04:24:18.502Z,11.69
2023-06-08T04:26:46.506Z,11.44
2023-06-08T04:29:14.409Z,11.48
2023-06-08T04:31:42.256Z,11.20
2023-06-08T04:34:11.953Z,11.35
2023-06-08T04:36:41.737Z,11.51
2023-06-08T04:39:09.921Z,11.43
2023-06-08T04:41:37.736Z,11.93
2023-06-08T04:44:06.493Z,11.94
2023-06-08T04:46:38.731Z,11.97
2023-06-08T04:49:07.212Z,11.66
2023-06-08T04:51:40.831Z,11.70
2023-06-08T04:54:14.153Z,12.16
2023-06-08T04:56:42.422Z,12.29
2023-06-08T04:59:10.535Z,12.67
2023-06-08T05:01:38.408Z,12.21
2023-06-08T05:04:08.653Z,12.57
2023-06-08T05:06:38.415Z,12.86
2023-06-08T05:09:06.533Z,13.07
2023-06-08T05:11:34.216Z,13.46
2023-06-08T05:14:01.942Z,13.48
2023-06-08T05:16:29.673Z,13.72
2023-06-08T05:18:57.500Z,14.64
2023-06-08T05:21:25.298Z,14.79
2023-06-08T05:23:54.427Z,13.91
2023-06-08T05:26:23.050Z,14.04
2023-06-08T05:28:50.762Z,14.28
2023-06-08T05:31:18.479Z,14.15
2023-06-08T05:33:46.209Z,14.11
2023-06-08T05:36:14.780Z,14.24
2023-06-08T05:38:43.105Z,14.54
2023-06-08T05:41:12.186Z,15.43
2023-06-08T05:43:39.889Z,15.57
2023-06-08T05:46:07.599Z,14.48
2023-06-08T05:48:35.356Z,14.15
2023-06-08T05:51:04.026Z,15.93
2023-06-08T05:53:32.005Z,15.04
2023-06-08T05:55:59.704Z,14.14
2023-06-08T05:58:40.794Z,13.74
2023-06-08T06:01:16.439Z,14.05
2023-06-08T06:03:44.261Z,14.48
2023-06-08T06:06:13.034Z,15.67
2023-06-08T06:08:44.382Z,15.47
2023-06-08T06:11:12.567Z,14.36
2023-06-08T06:13:41.770Z,13.83
2023-06-08T06:16:09.556Z,14.00
2023-06-08T06:18:37.897Z,13.80
2023-06-08T06:21:05.621Z,14.38
2023-06-08T06:23:33.377Z,14.90
2023-06-08T06:26:01.142Z,13.70
2023-06-08T06:28:28.964Z,14.00
2023-06-08T06:30:58.038Z,13.74
2023-06-08T06:33:26.017Z,13.87
2023-06-08T06:35:54.981Z,13.52
2023-06-08T06:38:22.856Z,13.57
2023-06-08T06:40:53.570Z,13.73
2023-06-08T06:43:22.138Z,13.92
2023-06-08T06:45:51.850Z,14.72
2023-06-08T06:48:23.822Z,14.63
2023-06-08T06:50:53.902Z,14.84
2023-06-08T06:53:21.713Z,14.21
2023-06-08T06:55:49.628Z,14.33
2023-06-08T06:58:17.424Z,14.52
2023-06-08T07:00:45.549Z,15.20
2023-06-08T07:03:13.830Z,15.04
2023-06-08T07:05:43.016Z,15.22
2023-06-08T07:08:11.433Z,14.88
2023-06-08T07:10:39.161Z,14.78
2023-06-08T07:13:06.894Z,14.80
2023-06-08T07:15:34.878Z,14.62
2023-06-08T07:18:02.616Z,14.43
2023-06-08T07:20:30.320Z,14.89
2023-06-08T07:23:07.626Z,15.31
2023-06-08T07:26:26.773Z,15.44
2023-06-08T07:28:34.965Z,15.08
2023-06-08T07:31:02.705Z,14.61
2023-06-08T07:33:30.515Z,15.51
2023-06-08T07:35:58.228Z,15.19
2023-06-08T07:38:27.417Z,15.46
2023-06-08T07:40:55.692Z,15.19
2023-06-08T07:43:23.390Z,15.04
2023-06-08T07:45:51.758Z,15.53
2023-06-08T07:48:19.493Z,16.00
2023-06-08T07:50:47.210Z,16.05
2023-06-08T07:53:16.076Z,16.16
2023-06-08T07:55:45.169Z,15.90
2023-06-08T07:58:12.918Z,16.23
2023-06-08T08:00:41.676Z,16.96
2023-06-08T08:03:09.579Z,16.30
2023-06-08T08:05:37.444Z,15.96
2023-06-08T08:08:05.463Z,16.04
2023-06-08T08:10:33.154Z,16.49
2023-06-08T08:13:02.239Z,16.23
2023-06-08T08:15:29.937Z,16.41
2023-06-08T08:17:58.222Z,16.84
2023-06-08T08:20:25.948Z,16.98
2023-06-08T08:22:53.650Z,16.36
2023-06-08T08:25:21.818Z,16.67
2023-06-08T08:27:49.541Z,17.39
2023-06-08T08:30:19.046Z,16.71
2023-06-08T08:32:46.936Z,17.16
2023-06-08T08:35:15.593Z,16.79
2023-06-08T08:37:43.543Z,17.19
2023-06-08T08:40:12.535Z,17.07
2023-06-08T08:42:44.469Z,17.29
2023-06-08T08:45:14.557Z,17.57
2023-06-08T08:47:43.846Z,17.75
2023-06-08T08:50:18.028Z,17.43
2023-06-08T08:52:47.156Z,18.18
2023-06-08T08:55:25.956Z,18.00
2023-06-08T08:58:02.629Z,18.26
2023-06-08T09:00:32.531Z,18.46
2023-06-08T09:03:02.524Z,18.56
2023-06-08T09:05:30.496Z,18.81
2023-06-08T09:07:58.247Z,18.26
2023-06-08T09:10:27.985Z,17.93
2023-06-08T09:12:58.098Z,18.18
2023-06-08T09:15:28.779Z,18.31
2023-06-08T09:17:58.433Z,18.01
2023-06-08T09:20:32.383Z,18.34
2023-06-08T09:23:00.192Z,19.27
2023-06-08T09:25:39.336Z,19.19
2023-06-08T09:28:17.536Z,19.26
2023-06-08T09:30:46.339Z,19.31
2023-06-08T09:33:22.412Z,19.06
2023-06-08T09:36:06.125Z,19.38
2023-06-08T09:38:34.862Z,19.18
2023-06-08T09:41:16.135Z,20.49
2023-06-08T09:43:44.769Z,19.61
2023-06-08T09:46:17.418Z,19.09
2023-06-08T09:48:55.089Z,19.31
2023-06-08T09:51:25.698Z,19.05
2023-06-08T09:53:56.429Z,19.82
2023-06-08T09:56:24.516Z,20.19
2023-06-08T09:58:53.408Z,19.83
2023-06-08T10:01:24.110Z,20.22
2023-06-08T10:03:54.976Z,20.18
2023-06-08T10:06:26.763Z,19.68
2023-06-08T10:08:55.868Z,20.35
2023-06-08T10:11:23.782Z,20.48
2023-06-08T10:13:52.185Z,20.85
2023-06-08T10:16:20.248Z,20.95
2023-06-08T10:18:48.712Z,21.70
2023-06-08T10:21:16.543Z,22.02
2023-06-08T10:23:46.131Z,22.32
2023-06-08T10:26:14.304Z,21.30
2023-06-08T10:29:20.873Z,21.10
2023-06-08T10:31:50.326Z,21.29
2023-06-08T10:34:18.633Z,21.27
2023-06-08T10:36:46.685Z,21.73
2023-06-08T10:39:17.786Z,21.60
2023-06-08T10:41:47.012Z,21.37
2023-06-08T10:44:32.390Z,21.66
2023-06-08T10:47:04.303Z,21.06
2023-06-08T10:49:35.776Z,20.93
2023-06-08T10:52:04.782Z,21.36
2023-06-08T10:55:03.785Z,21.64
2023-06-08T10:57:40.910Z,21.77
2023-06-08T11:00:45.238Z,22.47
2023-06-08T11:03:14.661Z,22.09
2023-06-08T11:05:44.447Z,22.01
2023-06-08T11:08:12.296Z,22.01
2023-06-08T11:10:41.981Z,22.12
2023-06-08T11:13:11.283Z,22.35
2023-06-08T11:15:40.380Z,22.44
2023-06-08T11:18:09.453Z,22.89
2023-06-08T11:20:38.615Z,22.82
2023-06-08T11:23:08.649Z,22.99
2023-06-08T11:25:37.050Z,22.32
2023-06-08T11:28:08.429Z,22.89
2023-06-08T11:30:36.826Z,22.94
2023-06-08T11:33:06.493Z,23.10
2023-06-08T11:35:35.041Z,23.12
2023-06-08T11:38:03.581Z,23.00
2023-06-08T11:40:32.683Z,22.97
2023-06-08T11:43:01.792Z,22.88
2023-06-08T11:45:31.999Z,22.29
2023-06-08T11:48:15.447Z,22.88
2023-06-08T11:50:48.349Z,23.18
2023-06-08T11:53:18.156Z,23.08
2023-06-08T11:55:47.778Z,22.76
2023-06-08T11:58:15.970Z,22.60
2023-06-08T12:00:46.302Z,23.26
2023-06-08T12:03:14.141Z,23.31
2023-06-08T12:05:44.595Z,23.34
2023-06-08T12:08:16.015Z,23.94
2023-06-08T12:10:47.667Z,23.85
2023-06-08T12:13:17.099Z,23.31
2023-06-08T12:15:48.905Z,23.17
2023-06-08T12:18:17.912Z,23.40
2023-06-08T12:20:46.968Z,23.34
2023-06-08T12:23:15.994Z,23.55
2023-06-08T12:25:44.472Z,23.54
2023-06-08T12:28:18.113Z,24.18
2023-06-08T12:30:47.361Z,24.07
2023-06-08T12:33:18.645Z,24.18
2023-06-08T12:35:46.578Z,24.10
2023-06-08T12:38:14.553Z,24.08
2023-06-08T12:40:44.838Z,24.14
2023-06-08T12:43:12.581Z,24.21
2023-06-08T12:45:40.275Z,24.28
2023-06-08T12:48:09.547Z,24.57
2023-06-08T12:50:39.325Z,24.57
2023-06-08T12:53:07.072Z,24.91
2023-06-08T12:55:34.933Z,24.96
2023-06-08T12:58:02.637Z,24.36
2023-06-08T13:00:30.537Z,24.44
2023-06-08T13:02:58.663Z,24.42
2023-06-08T13:05:30.266Z,24.75
2023-06-08T13:08:06.646Z,24.91
2023-06-08T13:10:34.518Z,24.72
2023-06-08T13:13:03.601Z,25.47
2023-06-08T13:15:31.520Z,25.57
2023-06-08T13:18:00.515Z,25.50
2023-06-08T13:20:29.799Z,24.70
2023-06-08T13:22:57.503Z,25.33
2023-06-08T13:25:25.295Z,25.59
2023-06-08T13:27:53.021Z,25.13
2023-06-08T13:30:22.530Z,25.76
2023-06-08T13:32:50.469Z,25.74
2023-06-08T13:35:18.426Z,25.00
2023-06-08T13:37:48.238Z,24.89
2023-06-08T13:40:16.020Z,24.73
2023-06-08T13:42:43.753Z,24.75
2023-06-08T13:45:13.109Z,25.42
2023-06-08T13:47:42.054Z,25.04
2023-06-08T13:50:11.819Z,24.97
2023-06-08T13:52:40.247Z,24.97
2023-06-08T13:55:10.255Z,24.92
2023-06-08T13:57:38.064Z,24.86
2023-06-08T14:00:07.763Z,24.82
2023-06-08T14:02:35.880Z,25.01
2023-06-08T14:05:04.752Z,24.93
2023-06-08T14:07:32.858Z,24.95
2023-06-08T14:10:01.619Z,25.01
2023-06-08T14:12:30.669Z,25.01
2023-06-08T14:14:58.388Z,25.21
2023-06-08T14:17:26.832Z,25.24
2023-06-08T14:19:54.588Z,25.09
2023-06-08T14:22:22.343Z,25.38
2023-06-08T14:24:50.085Z,25.49
2023-06-08T14:27:17.759Z,25.82
2023-06-08T14:29:47.366Z,25.78
2023-06-08T14:32:15.202Z,25.85
2023-06-08T14:34:42.896Z,25.39
2023-06-08T14:37:10.651Z,25.35
2023-06-08T14:39:38.350Z,25.48
2023-06-08T14:42:07.686Z,25.53
2023-06-08T14:44:35.716Z,25.86
2023-06-08T14:47:05.364Z,25.80
2023-06-08T14:49:38.066Z,25.42
2023-06-08T14:52:07.182Z,25.45
2023-06-08T14:54:34.939Z,25.85
2023-06-08T14:57:03.197Z,25.82
2023-06-08T14:59:31.415Z,25.60
2023-06-08T15:01:59.195Z,25.82
2023-06-08T15:04:28.382Z,25.31
2023-06-08T15:06:56.223Z,25.69
2023-06-08T15:09:24.343Z,25.70
2023-06-08T15:11:52.094Z,26.12
2023-06-08T15:14:19.780Z,25.60
2023-06-08T15:16:47.536Z,25.72
2023-06-08T15:19:15.928Z,25.26
2023-06-08T15:21:45.316Z,25.59
2023-06-08T15:24:13.309Z,25.81
2023-06-08T15:26:41.580Z,25.97
2023-06-08T15:29:12.818Z,25.73
2023-06-08T15:31:41.824Z,25.61
2023-06-08T15:34:09.720Z,25.41
2023-06-08T15:36:37.621Z,25.18
2023-06-08T15:39:06.782Z,25.77
2023-06-08T15:41:34.468Z,25.74
2023-06-08T15:44:02.848Z,25.38
2023-06-08T15:46:30.567Z,25.49
2023-06-08T15:48:58.337Z,26.09
2023-06-08T15:51:29.866Z,25.11
2023-06-08T15:53:58.433Z,25.15
2023-06-08T15:56:27.717Z,25.64
2023-06-08T15:58:56.119Z,25.74
2023-06-08T16:01:24.172Z,25.39
2023-06-08T16:03:51.932Z,24.86
2023-06-08T16:06:19.883Z,24.92
2023-06-08T16:08:47.646Z,24.89
2023-06-08T16:11:15.320Z,24.64
2023-06-08T16:13:46.321Z,24.66
2023-06-08T16:16:14.015Z,24.99
2023-06-08T16:18:42.163Z,25.16
2023-06-08T16:21:09.865Z,25.11
2023-06-08T16:23:37.599Z,24.77
2023-06-08T16:26:05.442Z,24.85
2023-06-08T16:28:33.293Z,25.01
2023-06-08T16:31:02.348Z,24.46
2023-06-08T16:33:30.847Z,24.99
2023-06-08T16:35:58.523Z,24.99
2023-06-08T16:38:26.219Z,24.81
2023-06-08T16:40:54.049Z,24.60
2023-06-08T16:43:21.806Z,24.82
2023-06-08T16:45:50.135Z,24.79
2023-06-08T16:48:19.284Z,24.55
2023-06-08T16:50:47.120Z,24.40
2023-06-08T16:53:14.973Z,24.50
2023-06-08T16:55:42.684Z,24.77
2023-06-08T16:58:10.448Z,25.04
2023-06-08T17:00:38.252Z,24.71
2023-06-08T17:03:06.385Z,24.76
2023-06-08T17:05:35.481Z,24.32
2023-06-08T17:08:03.157Z,24.23
2023-06-08T17:10:32.015Z,24.37
2023-06-08T17:12:59.718Z,24.39
2023-06-08T17:15:27.480Z,24.17
2023-06-08T17:17:55.327Z,24.04
2023-06-08T17:20:23.967Z,23.96
2023-06-08T17:22:53.205Z,24.09
2023-06-08T17:25:20.956Z,24.15
2023-06-08T17:27:48.640Z,24.23
2023-06-08T17:30:16.481Z,24.01
2023-06-08T17:32:44.237Z,24.06
2023-06-08T17:35:12.012Z,24.27
2023-06-08T17:37:39.936Z,23.67
2023-06-08T17:40:10.652Z,23.69
2023-06-08T17:42:38.380Z,23.45
2023-06-08T17:45:07.180Z,23.44
2023-06-08T17:47:35.378Z,23.46
2023-06-08T17:50:03.099Z,23.44
2023-06-08T17:52:30.846Z,23.64
2023-06-08T17:54:58.601Z,23.13
2023-06-08T17:57:27.717Z,23.25
2023-06-08T17:59:55.413Z,23.27
2023-06-08T18:02:23.166Z,23.35
2023-06-08T18:04:50.877Z,23.46
2023-06-08T18:07:18.616Z,23.55
2023-06-08T18:09:46.292Z,23.56
2023-06-08T18:12:13.962Z,23.53
2023-06-08T18:14:43.067Z,23.54
2023-06-08T18:17:10.879Z,23.67
2023-06-08T18:19:38.804Z,23.73
2023-06-08T18:22:06.705Z,23.49
2023-06-08T18:24:34.401Z,22.84
2023-06-08T18:27:02.116Z,22.72
2023-06-08T18:29:29.797Z,22.60
2023-06-08T18:31:58.937Z,22.48
2023-06-08T18:34:26.772Z,22.59
2023-06-08T18:36:54.527Z,22.53
2023-06-08T18:39:22.234Z,22.19
2023-06-08T18:41:50.413Z,22.42
2023-06-08T18:44:18.114Z,22.21
2023-06-08T18:46:46.277Z,22.13
2023-06-08T18:49:20.350Z,22.14
2023-06-08T18:51:48.073Z,22.07
2023-06-08T18:54:15.999Z,22.22
2023-06-08T18:56:43.710Z,21.78
2023-06-08T18:59:11.415Z,21.99
2023-06-08T19:01:39.674Z,22.16
2023-06-08T19:04:07.468Z,21.97
2023-06-08T19:06:37.423Z,21.99
2023-06-08T19:09:05.162Z,21.80
2023-06-08T19:11:32.882Z,21.61
2023-06-08T19:14:02.230Z,21.79
2023-06-08T19:16:32.814Z,21.52
2023-06-08T19:19:06.549Z,21.28
2023-06-08T19:21:34.250Z,21.47
2023-06-08T19:24:04.190Z,21.17
2023-06-08T19:26:32.064Z,21.38
2023-06-08T19:29:00.000Z,21.46
2023-06-08T19:31:27.919Z,21.28
2023-06-08T19:33:55.664Z,21.11
2023-06-08T19:36:24.079Z,20.72
2023-06-08T19:38:54.276Z,20.53
2023-06-08T19:41:23.747Z,20.49
2023-06-08T19:43:51.818Z,20.25
2023-06-08T19:46:19.628Z,20.17
2023-06-08T19:48:48.048Z,20.22
2023-06-08T19:51:15.868Z,20.05
2023-06-08T19:53:43.674Z,20.17
2023-06-08T19:56:11.415Z,20.29
2023-06-08T19:58:40.749Z,19.97
2023-06-08T20:01:09.192Z,19.83
2023-06-08T20:03:37.079Z,19.78
2023-06-08T20:06:05.306Z,19.83
2023-06-08T20:08:32.998Z,19.70
2023-06-08T20:11:00.776Z,19.58
2023-06-08T20:13:28.493Z,19.56
2023-06-08T20:15:57.562Z,19.53
2023-06-08T20:18:25.326Z,19.43
2023-06-08T20:20:53.052Z,19.37
2023-06-08T20:23:20.772Z,19.23
2023-06-08T20:25:48.572Z,19.26
2023-06-08T20:28:16.330Z,19.00
2023-06-08T20:30:44.004Z,19.02
2023-06-08T20:33:13.137Z,18.81
2023-06-08T20:35:40.836Z,18.92
2023-06-08T20:38:08.584Z,18.89
2023-06-08T20:40:36.725Z,18.79
2023-06-08T20:43:04.483Z,18.68
2023-06-08T20:45:32.181Z,18.43
2023-06-08T20:47:59.914Z,18.47
2023-06-08T20:50:29.024Z,18.44
2023-06-08T20:52:57.958Z,18.20
2023-06-08T20:55:25.847Z,18.06
2023-06-08T20:57:53.564Z,18.02
2023-06-08T21:00:21.688Z,18.02
2023-06-08T21:02:51.146Z,17.91
2023-06-08T21:05:20.822Z,17.89
2023-06-08T21:07:50.021Z,17.73
2023-06-08T21:10:17.913Z,17.83
2023-06-08T21:12:45.689Z,17.64
2023-06-08T21:15:13.367Z,17.85
2023-06-08T21:17:41.167Z,17.64
2023-06-08T21:20:09.960Z,17.65
2023-06-08T21:22:37.691Z,17.44
2023-06-08T21:25:07.475Z,17.54
2023-06-08T21:27:35.409Z,17.35
2023-06-08T21:30:03.633Z,17.11
2023-06-08T21:32:31.506Z,17.09
2023-06-08T21:34:59.254Z,17.06
2023-06-08T21:37:27.796Z,17.05
2023-06-08T21:39:55.560Z,16.98
2023-06-08T21:42:24.652Z,16.84
2023-06-08T21:44:53.591Z,16.75
2023-06-08T21:47:21.341Z,16.80
2023-06-08T21:49:49.076Z,16.72
2023-06-08T21:52:17.115Z,16.60
2023-06-08T21:54:47.837Z,16.64
2023-06-08T21:57:16.045Z,16.48
2023-06-08T21:59:45.518Z,16.41
2023-06-08T22:02:13.307Z,16.42
2023-06-08T22:04:41.118Z,16.47
2023-06-08T22:07:08.838Z,16.34
2023-06-08T22:09:37.642Z,16.23
2023-06-08T22:12:06.585Z,16.17
2023-06-08T22:14:34.326Z,16.19
2023-06-08T22:17:03.447Z,16.14
2023-06-08T22:19:32.863Z,16.14
2023-06-08T22:22:02.015Z,15.89
2023-06-08T22:24:29.723Z,15.88
2023-06-08T22:26:57.408Z,15.78
2023-06-08T22:29:25.106Z,15.59
2023-06-08T22:31:52.843Z,15.66
2023-06-08T22:34:21.953Z,15.45
2023-06-08T22:36:49.627Z,15.59
2023-06-08T22:39:17.335Z,15.37
2023-06-08T22:41:45.029Z,15.28
2023-06-08T22:44:13.993Z,15.31
2023-06-08T22:46:42.556Z,15.26
2023-06-08T22:49:11.510Z,15.16
2023-06-08T22:51:41.911Z,15.11
2023-06-08T22:54:10.126Z,14.96
2023-06-08T22:56:37.823Z,14.75
2023-06-08T22:59:05.539Z,14.95
2023-06-08T23:01:33.313Z,14.73
2023-06-08T23:04:01.036Z,14.60
2023-06-08T23:06:28.794Z,14.70
2023-06-08T23:09:03.872Z,14.74
2023-06-08T23:11:33.218Z,14.67
2023-06-08T23:14:04.365Z,14.47
2023-06-08T23:16:32.615Z,14.48
2023-06-08T23:19:01.880Z,14.57
2023-06-08T23:21:32.500Z,14.34
2023-06-08T23:24:01.591Z,14.25
2023-06-08T23:26:29.911Z,14.34
2023-06-08T23:28:58.134Z,14.27
2023-06-08T23:31:26.044Z,14.23
2023-06-08T23:33:54.044Z,14.30
2023-06-08T23:36:21.880Z,14.26
2023-06-08T23:38:49.915Z,14.22
2023-06-08T23:41:19.010Z,14.42
2023-06-08T23:43:46.946Z,14.23
2023-06-08T23:46:15.617Z,14.23
2023-06-08T23:48:44.009Z,14.04
2023-06-08T23:51:12.781Z,13.95
2023-06-08T23:53:40.491Z,13.97
2023-06-08T23:56:08.251Z,13.86
2023-06-08T23:58:37.341Z,13.86
